sensor_id;sensor_type;location;lat;lon;timestamp;P1;durP1;ratioP1;P2;durP2;ratioP2
3781;SDS011;6881;49.962;7.718;2023-06-10T00:01:38;12.13;;;11.07;;
3781;SDS011;6881;49.962;7.718;2023-06-10T00:04:04;12.60;;;11.60;;
3781;SDS011;6881;49.962;7.718;2023-06-10T00:06:29;11.63;;;10.50;;
3781;SDS011;6881;49.962;7.718;2023-06-10T00:09:00;12.10;;;10.90;;
3781;SDS011;6881;49.962;7.718;2023-06-10T00:11:26;12.67;;;11.37;;
3781;SDS011;6881;49.962;7.718;2023-06-10T00:13:51;12.73;;;11.30;;
3781;SDS011;6881;49.962;7.718;2023-06-10T00:16:17;12.57;;;11.33;;
3781;SDS011;6881;49.962;7.718;2023-06-10T00:18:43;13.03;;;11.70;;
3781;SDS011;6881;49.962;7.718;2023-06-10T00:21:09;12.53;;;11.33;;
3781;SDS011;6881;49.962;7.718;2023-06-10T00:23:34;12.60;;;11.40;;
3781;SDS011;6881;49.962;7.718;2023-06-10T00:26:03;13.00;;;11.90;;
3781;SDS011;6881;49.962;7.718;2023-06-10T00:28:29;12.20;;;11.20;;
3781;SDS011;6881;49.962;7.718;2023-06-10T00:30:54;13.10;;;11.90;;
3781;SDS011;6881;49.962;7.718;2023-06-10T00:33:20;13.37;;;12.10;;
3781;SDS011;6881;49.962;7.718;2023-06-10T00:35:46;13.30;;;12.03;;
3781;SDS011;6881;49.962;7.718;2023-06-10T00:38:12;12.73;;;11.70;;
3781;SDS011;6881;49.962;7.718;2023-06-10T00:40:39;12.60;;;11.50;;
3781;SDS011;6881;49.962;7.718;2023-06-10T00:43:05;11.47;;;10.40;;
3781;SDS011;6881;49.962;7.718;2023-06-10T00:45:31;13.00;;;11.90;;
3781;SDS011;6881;49.962;7.718;2023-06-10T00:47:56;14.00;;;12.57;;
3781;SDS011;6881;49.962;7.718;2023-06-10T00:50:21;12.90;;;11.50;;
3781;SDS011;6881;49.962;7.718;2023-06-10T00:52:47;12.77;;;11.57;;
3781;SDS011;6881;49.962;7.718;2023-06-10T00:55:13;13.40;;;12.20;;
3781;SDS011;6881;49.962;7.718;2023-06-10T00:57:39;15.10;;;12.33;;
3781;SDS011;6881;49.962;7.718;2023-06-10T01:00:05;12.70;;;11.60;;
3781;SDS011;6881;49.962;7.718;2023-06-10T01:02:33;12.00;;;10.97;;
3781;SDS011;6881;49.962;7.718;2023-06-10T01:04:58;12.47;;;11.27;;
3781;SDS011;6881;49.962;7.718;2023-06-10T01:07:50;13.07;;;11.90;;
3781;SDS011;6881;49.962;7.718;2023-06-10T01:10:15;11.93;;;10.93;;
3781;SDS011;6881;49.962;7.718;2023-06-10T01:15:33;13.50;;;12.10;;
3781;SDS011;6881;49.962;7.718;2023-06-10T01:18:09;11.57;;;10.47;;
3781;SDS011;6881;49.962;7.718;2023-06-10T01:20:40;12.67;;;11.37;;
3781;SDS011;6881;49.962;7.718;2023-06-10T01:23:06;12.20;;;11.00;;
3781;SDS011;6881;49.962;7.718;2023-06-10T01:25:32;12.23;;;11.07;;
3781;SDS011;6881;49.962;7.718;2023-06-10T01:28:21;12.93;;;11.53;;
3781;SDS011;6881;49.962;7.718;2023-06-10T01:33:27;12.70;;;11.50;;
3781;SDS011;6881;49.962;7.718;2023-06-10T01:35:56;12.20;;;10.97;;
3781;SDS011;6881;49.962;7.718;2023-06-10T01:38:23;12.83;;;11.37;;
3781;SDS011;6881;49.962;7.718;2023-06-10T01:40:53;12.17;;;10.93;;
3781;SDS011;6881;49.962;7.718;2023-06-10T01:43:20;12.93;;;11.77;;
3781;SDS011;6881;49.962;7.718;2023-06-10T01:45:46;11.93;;;10.87;;
3781;SDS011;6881;49.962;7.718;2023-06-10T01:48:11;12.17;;;10.97;;
3781;SDS011;6881;49.962;7.718;2023-06-10T01:50:36;12.73;;;11.57;;
3781;SDS011;6881;49.962;7.718;2023-06-10T01:53:03;12.93;;;11.60;;
3781;SDS011;6881;49.962;7.718;2023-06-10T01:55:28;12.40;;;11.20;;
3781;SDS011;6881;49.962;7.718;2023-06-10T01:57:54;12.80;;;11.50;;
3781;SDS011;6881;49.962;7.718;2023-06-10T02:00:19;12.03;;;10.83;;
3781;SDS011;6881;49.962;7.718;2023-06-10T02:02:45;11.93;;;10.73;;
3781;SDS011;6881;49.962;7.718;2023-06-10T02:05:10;12.07;;;10.87;;
3781;SDS011;6881;49.962;7.718;2023-06-10T02:07:36;12.00;;;10.60;;
3781;SDS011;6881;49.962;7.718;2023-06-10T02:10:01;11.70;;;10.60;;
3781;SDS011;6881;49.962;7.718;2023-06-10T02:12:26;11.80;;;10.63;;
3781;SDS011;6881;49.962;7.718;2023-06-10T02:14:52;12.30;;;11.30;;
3781;SDS011;6881;49.962;7.718;2023-06-10T02:17:17;13.60;;;10.87;;
3781;SDS011;6881;49.962;7.718;2023-06-10T02:19:42;11.80;;;10.80;;
3781;SDS011;6881;49.962;7.718;2023-06-10T02:22:08;13.23;;;12.00;;
3781;SDS011;6881;49.962;7.718;2023-06-10T02:24:35;11.77;;;10.37;;
3781;SDS011;6881;49.962;7.718;2023-06-10T02:27:02;12.87;;;11.30;;
3781;SDS011;6881;49.962;7.718;2023-06-10T02:29:28;13.37;;;12.07;;
3781;SDS011;6881;49.962;7.718;2023-06-10T02:31:53;11.83;;;10.63;;
3781;SDS011;6881;49.962;7.718;2023-06-10T02:34:19;12.27;;;11.03;;
3781;SDS011;6881;49.962;7.718;2023-06-10T02:36:44;10.53;;;9.47;;
3781;SDS011;6881;49.962;7.718;2023-06-10T02:39:10;12.97;;;11.67;;
3781;SDS011;6881;49.962;7.718;2023-06-10T02:41:35;12.93;;;11.60;;
3781;SDS011;6881;49.962;7.718;2023-06-10T02:44:01;12.40;;;11.10;;
3781;SDS011;6881;49.962;7.718;2023-06-10T02:46:26;12.90;;;11.60;;
3781;SDS011;6881;49.962;7.718;2023-06-10T02:48:53;13.60;;;11.40;;
3781;SDS011;6881;49.962;7.718;2023-06-10T02:51:19;13.60;;;12.40;;
3781;SDS011;6881;49.962;7.718;2023-06-10T02:53:44;13.13;;;11.83;;
3781;SDS011;6881;49.962;7.718;2023-06-10T02:56:09;14.50;;;13.00;;
3781;SDS011;6881;49.962;7.718;2023-06-10T02:58:36;12.50;;;11.20;;
3781;SDS011;6881;49.962;7.718;2023-06-10T03:01:02;12.70;;;11.40;;
3781;SDS011;6881;49.962;7.718;2023-06-10T03:03:27;13.00;;;11.33;;
3781;SDS011;6881;49.962;7.718;2023-06-10T03:05:52;13.53;;;12.03;;
3781;SDS011;6881;49.962;7.718;2023-06-10T03:08:18;13.00;;;11.70;;
3781;SDS011;6881;49.962;7.718;2023-06-10T03:10:43;12.50;;;11.30;;
3781;SDS011;6881;49.962;7.718;2023-06-10T03:13:08;12.67;;;11.33;;
3781;SDS011;6881;49.962;7.718;2023-06-10T03:15:35;13.13;;;10.80;;
3781;SDS011;6881;49.962;7.718;2023-06-10T03:18:01;11.10;;;9.97;;
3781;SDS011;6881;49.962;7.718;2023-06-10T03:20:27;13.30;;;11.10;;
3781;SDS011;6881;49.962;7.718;2023-06-10T03:22:52;13.30;;;11.53;;
3781;SDS011;6881;49.962;7.718;2023-06-10T03:25:18;13.50;;;12.10;;
3781;SDS011;6881;49.962;7.718;2023-06-10T03:27:45;13.53;;;11.70;;
3781;SDS011;6881;49.962;7.718;2023-06-10T03:30:12;12.70;;;11.50;;
3781;SDS011;6881;49.962;7.718;2023-06-10T03:32:38;12.87;;;11.60;;
3781;SDS011;6881;49.962;7.718;2023-06-10T03:35:03;11.87;;;10.67;;
3781;SDS011;6881;49.962;7.718;2023-06-10T03:37:29;11.47;;;10.27;;
3781;SDS011;6881;49.962;7.718;2023-06-10T03:39:54;12.43;;;11.23;;
3781;SDS011;6881;49.962;7.718;2023-06-10T03:42:19;11.13;;;10.00;;
3781;SDS011;6881;49.962;7.718;2023-06-10T03:44:44;11.90;;;10.70;;
3781;SDS011;6881;49.962;7.718;2023-06-10T03:47:10;11.47;;;10.37;;
3781;SDS011;6881;49.962;7.718;2023-06-10T03:49:35;12.00;;;10.70;;
3781;SDS011;6881;49.962;7.718;2023-06-10T03:52:01;11.00;;;9.80;;
3781;SDS011;6881;49.962;7.718;2023-06-10T03:54:27;11.47;;;10.43;;
3781;SDS011;6881;49.962;7.718;2023-06-10T03:56:52;10.97;;;9.80;;
3781;SDS011;6881;49.962;7.718;2023-06-10T03:59:17;11.27;;;10.17;;
3781;SDS011;6881;49.962;7.718;2023-06-10T04:01:43;11.40;;;10.23;;
3781;SDS011;6881;49.962;7.718;2023-06-10T04:04:08;11.23;;;10.13;;
3781;SDS011;6881;49.962;7.718;2023-06-10T04:06:34;10.40;;;9.40;;
3781;SDS011;6881;49.962;7.718;2023-06-10T04:09:00;10.87;;;9.50;;
3781;SDS011;6881;49.962;7.718;2023-06-10T04:11:25;10.07;;;9.07;;
3781;SDS011;6881;49.962;7.718;2023-06-10T04:13:50;10.53;;;9.67;;
3781;SDS011;6881;49.962;7.718;2023-06-10T04:16:16;11.40;;;10.17;;
3781;SDS011;6881;49.962;7.718;2023-06-10T04:18:41;10.60;;;9.07;;
3781;SDS011;6881;49.962;7.718;2023-06-10T04:21:07;10.53;;;9.53;;
3781;SDS011;6881;49.962;7.718;2023-06-10T04:23:33;11.13;;;10.10;;
3781;SDS011;6881;49.962;7.718;2023-06-10T04:25:58;9.97;;;8.97;;
3781;SDS011;6881;49.962;7.718;2023-06-10T04:28:24;11.47;;;10.23;;
3781;SDS011;6881;49.962;7.718;2023-06-10T04:30:49;10.40;;;9.17;;
3781;SDS011;6881;49.962;7.718;2023-06-10T04:33:15;9.87;;;8.97;;
3781;SDS011;6881;49.962;7.718;2023-06-10T04:35:41;10.20;;;9.10;;
3781;SDS011;6881;49.962;7.718;2023-06-10T04:38:07;10.63;;;9.63;;
3781;SDS011;6881;49.962;7.718;2023-06-10T04:40:32;10.37;;;9.37;;
3781;SDS011;6881;49.962;7.718;2023-06-10T04:42:58;9.50;;;8.50;;
3781;SDS011;6881;49.962;7.718;2023-06-10T04:45:23;9.40;;;8.60;;
3781;SDS011;6881;49.962;7.718;2023-06-10T04:47:48;10.53;;;9.10;;
3781;SDS011;6881;49.962;7.718;2023-06-10T04:50:14;10.47;;;9.47;;
3781;SDS011;6881;49.962;7.718;2023-06-10T04:52:39;10.10;;;9.20;;
3781;SDS011;6881;49.962;7.718;2023-06-10T04:55:06;10.00;;;8.67;;
3781;SDS011;6881;49.962;7.718;2023-06-10T04:57:32;9.83;;;8.83;;
3781;SDS011;6881;49.962;7.718;2023-06-10T04:59:57;9.30;;;8.40;;
3781;SDS011;6881;49.962;7.718;2023-06-10T05:02:23;8.57;;;7.70;;
3781;SDS011;6881;49.962;7.718;2023-06-10T05:04:48;9.20;;;8.30;;
3781;SDS011;6881;49.962;7.718;2023-06-10T05:07:13;9.97;;;9.07;;
3781;SDS011;6881;49.962;7.718;2023-06-10T05:09:39;9.37;;;8.57;;
3781;SDS011;6881;49.962;7.718;2023-06-10T05:12:04;9.77;;;8.77;;
3781;SDS011;6881;49.962;7.718;2023-06-10T05:14:30;8.87;;;8.17;;
3781;SDS011;6881;49.962;7.718;2023-06-10T05:16:56;8.43;;;7.63;;
3781;SDS011;6881;49.962;7.718;2023-06-10T05:19:21;8.87;;;7.97;;
3781;SDS011;6881;49.962;7.718;2023-06-10T05:21:47;9.10;;;8.30;;
3781;SDS011;6881;49.962;7.718;2023-06-10T05:24:13;8.53;;;7.83;;
3781;SDS011;6881;49.962;7.718;2023-06-10T05:26:38;8.47;;;7.73;;
3781;SDS011;6881;49.962;7.718;2023-06-10T05:29:04;9.53;;;8.60;;
3781;SDS011;6881;49.962;7.718;2023-06-10T05:31:30;8.80;;;7.97;;
3781;SDS011;6881;49.962;7.718;2023-06-10T05:33:55;8.37;;;7.67;;
3781;SDS011;6881;49.962;7.718;2023-06-10T05:36:21;8.67;;;7.87;;
3781;SDS011;6881;49.962;7.718;2023-06-10T05:38:46;8.80;;;7.63;;
3781;SDS011;6881;49.962;7.718;2023-06-10T05:41:12;8.10;;;7.33;;
3781;SDS011;6881;49.962;7.718;2023-06-10T05:43:37;8.57;;;7.80;;
3781;SDS011;6881;49.962;7.718;2023-06-10T05:46:02;7.73;;;7.07;;
3781;SDS011;6881;49.962;7.718;2023-06-10T05:48:28;7.90;;;7.20;;
3781;SDS011;6881;49.962;7.718;2023-06-10T05:50:53;8.37;;;7.37;;
3781;SDS011;6881;49.962;7.718;2023-06-10T05:53:18;8.37;;;7.63;;
3781;SDS011;6881;49.962;7.718;2023-06-10T05:55:44;9.23;;;8.43;;
3781;SDS011;6881;49.962;7.718;2023-06-10T05:58:10;8.80;;;8.00;;
3781;SDS011;6881;49.962;7.718;2023-06-10T06:00:37;8.27;;;7.67;;
3781;SDS011;6881;49.962;7.718;2023-06-10T06:03:03;8.43;;;7.57;;
3781;SDS011;6881;49.962;7.718;2023-06-10T06:05:28;9.30;;;7.33;;
3781;SDS011;6881;49.962;7.718;2023-06-10T06:07:59;8.07;;;7.30;;
3781;SDS011;6881;49.962;7.718;2023-06-10T06:10:25;10.10;;;8.10;;
3781;SDS011;6881;49.962;7.718;2023-06-10T06:12:50;9.33;;;8.43;;
3781;SDS011;6881;49.962;7.718;2023-06-10T06:15:16;9.00;;;8.13;;
3781;SDS011;6881;49.962;7.718;2023-06-10T06:17:41;8.90;;;8.10;;
3781;SDS011;6881;49.962;7.718;2023-06-10T06:20:06;8.90;;;8.00;;
3781;SDS011;6881;49.962;7.718;2023-06-10T06:22:32;8.13;;;7.33;;
3781;SDS011;6881;49.962;7.718;2023-06-10T06:24:57;8.30;;;7.60;;
3781;SDS011;6881;49.962;7.718;2023-06-10T06:27:22;9.90;;;9.10;;
3781;SDS011;6881;49.962;7.718;2023-06-10T06:29:48;8.03;;;7.30;;
3781;SDS011;6881;49.962;7.718;2023-06-10T06:32:13;9.27;;;8.57;;
3781;SDS011;6881;49.962;7.718;2023-06-10T06:34:38;9.43;;;8.63;;
3781;SDS011;6881;49.962;7.718;2023-06-10T06:37:04;9.17;;;8.27;;
3781;SDS011;6881;49.962;7.718;2023-06-10T06:39:30;8.93;;;8.13;;
3781;SDS011;6881;49.962;7.718;2023-06-10T06:41:55;8.90;;;8.20;;
3781;SDS011;6881;49.962;7.718;2023-06-10T06:44:20;9.17;;;8.37;;
3781;SDS011;6881;49.962;7.718;2023-06-10T06:46:45;8.50;;;7.70;;
3781;SDS011;6881;49.962;7.718;2023-06-10T06:49:11;9.10;;;8.20;;
3781;SDS011;6881;49.962;7.718;2023-06-10T06:51:36;9.23;;;8.43;;
3781;SDS011;6881;49.962;7.718;2023-06-10T06:54:02;8.53;;;7.83;;
3781;SDS011;6881;49.962;7.718;2023-06-10T06:56:27;9.00;;;8.30;;
3781;SDS011;6881;49.962;7.718;2023-06-10T06:58:53;8.73;;;8.03;;
3781;SDS011;6881;49.962;7.718;2023-06-10T07:01:18;9.63;;;8.83;;
3781;SDS011;6881;49.962;7.718;2023-06-10T07:03:44;9.80;;;9.00;;
3781;SDS011;6881;49.962;7.718;2023-06-10T07:06:09;9.83;;;9.10;;
3781;SDS011;6881;49.962;7.718;2023-06-10T07:08:34;9.27;;;8.43;;
3781;SDS011;6881;49.962;7.718;2023-06-10T07:11:00;8.50;;;7.70;;
3781;SDS011;6881;49.962;7.718;2023-06-10T07:13:25;9.07;;;8.17;;
3781;SDS011;6881;49.962;7.718;2023-06-10T07:15:50;9.10;;;8.40;;
3781;SDS011;6881;49.962;7.718;2023-06-10T07:18:16;9.23;;;8.40;;
3781;SDS011;6881;49.962;7.718;2023-06-10T07:20:42;9.30;;;8.60;;
3781;SDS011;6881;49.962;7.718;2023-06-10T07:23:07;9.30;;;8.50;;
3781;SDS011;6881;49.962;7.718;2023-06-10T07:25:32;9.17;;;8.47;;
3781;SDS011;6881;49.962;7.718;2023-06-10T07:27:58;9.13;;;8.33;;
3781;SDS011;6881;49.962;7.718;2023-06-10T07:30:23;9.80;;;9.00;;
3781;SDS011;6881;49.962;7.718;2023-06-10T07:32:48;9.17;;;8.30;;
3781;SDS011;6881;49.962;7.718;2023-06-10T07:35:14;8.97;;;8.37;;
3781;SDS011;6881;49.962;7.718;2023-06-10T07:37:39;8.40;;;7.80;;
3781;SDS011;6881;49.962;7.718;2023-06-10T07:40:05;8.40;;;7.80;;
3781;SDS011;6881;49.962;7.718;2023-06-10T07:42:31;8.70;;;8.00;;
3781;SDS011;6881;49.962;7.718;2023-06-10T07:44:57;9.47;;;8.67;;
3781;SDS011;6881;49.962;7.718;2023-06-10T07:47:23;9.07;;;8.33;;
3781;SDS011;6881;49.962;7.718;2023-06-10T07:49:48;9.07;;;8.37;;
3781;SDS011;6881;49.962;7.718;2023-06-10T07:52:13;10.10;;;9.30;;
3781;SDS011;6881;49.962;7.718;2023-06-10T07:54:39;9.57;;;8.67;;
3781;SDS011;6881;49.962;7.718;2023-06-10T07:57:04;9.40;;;8.67;;
3781;SDS011;6881;49.962;7.718;2023-06-10T07:59:31;9.33;;;8.53;;
3781;SDS011;6881;49.962;7.718;2023-06-10T08:01:57;9.70;;;8.90;;
3781;SDS011;6881;49.962;7.718;2023-06-10T08:04:22;10.07;;;9.27;;
3781;SDS011;6881;49.962;7.718;2023-06-10T08:06:47;9.10;;;8.30;;
3781;SDS011;6881;49.962;7.718;2023-06-10T08:09:13;10.40;;;9.43;;
3781;SDS011;6881;49.962;7.718;2023-06-10T08:11:38;9.30;;;8.60;;
3781;SDS011;6881;49.962;7.718;2023-06-10T08:14:03;9.70;;;8.97;;
3781;SDS011;6881;49.962;7.718;2023-06-10T08:16:28;10.20;;;9.30;;
3781;SDS011;6881;49.962;7.718;2023-06-10T08:18:54;9.30;;;8.60;;
3781;SDS011;6881;49.962;7.718;2023-06-10T08:21:19;9.53;;;8.53;;
3781;SDS011;6881;49.962;7.718;2023-06-10T08:23:45;8.70;;;8.00;;
3781;SDS011;6881;49.962;7.718;2023-06-10T08:26:10;9.23;;;8.33;;
3781;SDS011;6881;49.962;7.718;2023-06-10T08:28:35;9.93;;;9.13;;
3781;SDS011;6881;49.962;7.718;2023-06-10T08:31:01;9.43;;;8.63;;
3781;SDS011;6881;49.962;7.718;2023-06-10T08:33:26;9.13;;;8.43;;
3781;SDS011;6881;49.962;7.718;2023-06-10T08:35:51;10.20;;;9.50;;
3781;SDS011;6881;49.962;7.718;2023-06-10T08:38:16;8.97;;;8.27;;
3781;SDS011;6881;49.962;7.718;2023-06-10T08:40:42;9.97;;;9.37;;
3781;SDS011;6881;49.962;7.718;2023-06-10T08:43:08;9.60;;;8.90;;
3781;SDS011;6881;49.962;7.718;2023-06-10T08:45:36;8.60;;;8.00;;
3781;SDS011;6881;49.962;7.718;2023-06-10T08:48:02;9.30;;;8.60;;
3781;SDS011;6881;49.962;7.718;2023-06-10T08:50:32;8.60;;;7.90;;
3781;SDS011;6881;49.962;7.718;2023-06-10T08:53:00;9.47;;;8.67;;
3781;SDS011;6881;49.962;7.718;2023-06-10T08:55:32;9.20;;;8.60;;
3781;SDS011;6881;49.962;7.718;2023-06-10T08:57:59;9.10;;;8.40;;
3781;SDS011;6881;49.962;7.718;2023-06-10T09:00:25;9.20;;;8.40;;
3781;SDS011;6881;49.962;7.718;2023-06-10T09:02:51;9.27;;;8.60;;
3781;SDS011;6881;49.962;7.718;2023-06-10T09:05:17;8.70;;;8.10;;
3781;SDS011;6881;49.962;7.718;2023-06-10T09:07:42;9.10;;;8.40;;
3781;SDS011;6881;49.962;7.718;2023-06-10T09:10:08;9.43;;;8.73;;
3781;SDS011;6881;49.962;7.718;2023-06-10T09:12:33;8.73;;;8.03;;
3781;SDS011;6881;49.962;7.718;2023-06-10T09:15:00;8.40;;;7.80;;
3781;SDS011;6881;49.962;7.718;2023-06-10T09:17:26;9.60;;;8.37;;
3781;SDS011;6881;49.962;7.718;2023-06-10T09:19:52;8.80;;;8.20;;
3781;SDS011;6881;49.962;7.718;2023-06-10T09:22:18;8.97;;;8.17;;
3781;SDS011;6881;49.962;7.718;2023-06-10T09:24:44;9.40;;;8.47;;
3781;SDS011;6881;49.962;7.718;2023-06-10T09:27:11;8.77;;;8.07;;
3781;SDS011;6881;49.962;7.718;2023-06-10T09:29:53;9.07;;;8.27;;
3781;SDS011;6881;49.962;7.718;2023-06-10T09:32:19;8.43;;;7.63;;
3781;SDS011;6881;49.962;7.718;2023-06-10T09:34:45;8.57;;;7.97;;
3781;SDS011;6881;49.962;7.718;2023-06-10T09:37:11;8.27;;;7.70;;
3781;SDS011;6881;49.962;7.718;2023-06-10T09:39:38;8.33;;;7.63;;
3781;SDS011;6881;49.962;7.718;2023-06-10T09:42:16;10.67;;;7.60;;
3781;SDS011;6881;49.962;7.718;2023-06-10T09:44:42;8.53;;;7.93;;
3781;SDS011;6881;49.962;7.718;2023-06-10T09:47:19;8.60;;;8.00;;
3781;SDS011;6881;49.962;7.718;2023-06-10T09:49:51;7.70;;;7.10;;
3781;SDS011;6881;49.962;7.718;2023-06-10T09:52:25;6.90;;;6.40;;
3781;SDS011;6881;49.962;7.718;2023-06-10T09:54:51;8.07;;;7.47;;
3781;SDS011;6881;49.962;7.718;2023-06-10T09:57:17;8.37;;;7.70;;
3781;SDS011;6881;49.962;7.718;2023-06-10T09:59:42;9.20;;;8.30;;
3781;SDS011;6881;49.962;7.718;2023-06-10T10:02:14;7.57;;;7.07;;
3781;SDS011;6881;49.962;7.718;2023-06-10T10:04:41;7.73;;;7.13;;
3781;SDS011;6881;49.962;7.718;2023-06-10T10:07:06;8.53;;;7.77;;
3781;SDS011;6881;49.962;7.718;2023-06-10T10:09:33;8.80;;;8.00;;
3781;SDS011;6881;49.962;7.718;2023-06-10T10:11:59;8.50;;;7.80;;
3781;SDS011;6881;49.962;7.718;2023-06-10T10:14:26;8.63;;;7.97;;
3781;SDS011;6881;49.962;7.718;2023-06-10T10:17:04;7.40;;;6.70;;
3781;SDS011;6881;49.962;7.718;2023-06-10T10:19:36;8.23;;;7.53;;
3781;SDS011;6881;49.962;7.718;2023-06-10T10:22:10;8.07;;;7.47;;
3781;SDS011;6881;49.962;7.718;2023-06-10T10:24:44;8.23;;;7.63;;
3781;SDS011;6881;49.962;7.718;2023-06-10T10:27:30;9.40;;;8.70;;
3781;SDS011;6881;49.962;7.718;2023-06-10T10:29:58;7.40;;;6.67;;
3781;SDS011;6881;49.962;7.718;2023-06-10T10:32:26;8.10;;;7.50;;
3781;SDS011;6881;49.962;7.718;2023-06-10T10:37:39;8.47;;;7.77;;
3781;SDS011;6881;49.962;7.718;2023-06-10T10:40:05;6.80;;;6.40;;
3781;SDS011;6881;49.962;7.718;2023-06-10T10:42:31;8.93;;;7.40;;
3781;SDS011;6881;49.962;7.718;2023-06-10T10:44:57;7.63;;;6.93;;
3781;SDS011;6881;49.962;7.718;2023-06-10T10:47:23;8.80;;;8.10;;
3781;SDS011;6881;49.962;7.718;2023-06-10T10:49:54;7.40;;;6.90;;
3781;SDS011;6881;49.962;7.718;2023-06-10T10:52:19;8.03;;;7.17;;
3781;SDS011;6881;49.962;7.718;2023-06-10T10:54:46;7.20;;;6.70;;
3781;SDS011;6881;49.962;7.718;2023-06-10T10:59:56;8.40;;;7.17;;
3781;SDS011;6881;49.962;7.718;2023-06-10T11:05:00;8.27;;;7.67;;
3781;SDS011;6881;49.962;7.718;2023-06-10T11:07:26;8.00;;;7.23;;
3781;SDS011;6881;49.962;7.718;2023-06-10T11:10:03;7.70;;;7.10;;
3781;SDS011;6881;49.962;7.718;2023-06-10T11:15:23;9.90;;;8.30;;
3781;SDS011;6881;49.962;7.718;2023-06-10T11:33:48;7.40;;;6.80;;
3781;SDS011;6881;49.962;7.718;2023-06-10T11:36:17;6.43;;;5.93;;
3781;SDS011;6881;49.962;7.718;2023-06-10T11:38:43;7.30;;;6.80;;
3781;SDS011;6881;49.962;7.718;2023-06-10T11:41:08;6.97;;;6.47;;
3781;SDS011;6881;49.962;7.718;2023-06-10T11:43:35;7.47;;;6.87;;
3781;SDS011;6881;49.962;7.718;2023-06-10T11:46:01;7.60;;;6.57;;
3781;SDS011;6881;49.962;7.718;2023-06-10T11:48:27;9.17;;;7.33;;
3781;SDS011;6881;49.962;7.718;2023-06-10T11:50:56;7.27;;;6.53;;
3781;SDS011;6881;49.962;7.718;2023-06-10T11:53:21;8.20;;;5.73;;
3781;SDS011;6881;49.962;7.718;2023-06-10T11:55:47;6.53;;;6.13;;
3781;SDS011;6881;49.962;7.718;2023-06-10T11:58:17;6.50;;;6.10;;
3781;SDS011;6881;49.962;7.718;2023-06-10T12:00:50;7.13;;;6.53;;
3781;SDS011;6881;49.962;7.718;2023-06-10T12:03:16;7.97;;;7.17;;
3781;SDS011;6881;49.962;7.718;2023-06-10T12:05:55;7.77;;;7.27;;
3781;SDS011;6881;49.962;7.718;2023-06-10T12:08:24;7.37;;;6.63;;
3781;SDS011;6881;49.962;7.718;2023-06-10T12:10:49;7.37;;;6.77;;
3781;SDS011;6881;49.962;7.718;2023-06-10T12:13:15;8.07;;;7.53;;
3781;SDS011;6881;49.962;7.718;2023-06-10T12:15:42;8.10;;;7.40;;
3781;SDS011;6881;49.962;7.718;2023-06-10T12:18:08;7.60;;;7.00;;
3781;SDS011;6881;49.962;7.718;2023-06-10T12:20:43;8.23;;;7.63;;
3781;SDS011;6881;49.962;7.718;2023-06-10T12:23:09;8.10;;;7.40;;
3781;SDS011;6881;49.962;7.718;2023-06-10T12:25:34;7.83;;;7.33;;
3781;SDS011;6881;49.962;7.718;2023-06-10T12:28:01;8.10;;;7.50;;
3781;SDS011;6881;49.962;7.718;2023-06-10T12:30:27;8.00;;;7.30;;
3781;SDS011;6881;49.962;7.718;2023-06-10T12:32:53;8.47;;;7.77;;
3781;SDS011;6881;49.962;7.718;2023-06-10T12:35:22;8.73;;;7.90;;
3781;SDS011;6881;49.962;7.718;2023-06-10T12:40:27;8.50;;;7.90;;
3781;SDS011;6881;49.962;7.718;2023-06-10T12:42:57;9.63;;;8.30;;
3781;SDS011;6881;49.962;7.718;2023-06-10T12:45:32;9.23;;;8.53;;
3781;SDS011;6881;49.962;7.718;2023-06-10T12:48:11;9.37;;;8.60;;
3781;SDS011;6881;49.962;7.718;2023-06-10T12:50:39;8.90;;;8.20;;
3781;SDS011;6881;49.962;7.718;2023-06-10T12:53:06;8.90;;;8.20;;
3781;SDS011;6881;49.962;7.718;2023-06-10T12:55:32;8.70;;;8.00;;
3781;SDS011;6881;49.962;7.718;2023-06-10T12:57:58;9.20;;;8.60;;
3781;SDS011;6881;49.962;7.718;2023-06-10T13:00:24;9.10;;;8.47;;
3781;SDS011;6881;49.962;7.718;2023-06-10T13:02:54;8.37;;;7.77;;
3781;SDS011;6881;49.962;7.718;2023-06-10T13:05:20;8.60;;;7.90;;
3781;SDS011;6881;49.962;7.718;2023-06-10T13:07:45;8.17;;;7.57;;
3781;SDS011;6881;49.962;7.718;2023-06-10T13:10:12;8.17;;;7.43;;
3781;SDS011;6881;49.962;7.718;2023-06-10T13:12:41;9.50;;;8.40;;
3781;SDS011;6881;49.962;7.718;2023-06-10T13:15:07;8.30;;;7.70;;
3781;SDS011;6881;49.962;7.718;2023-06-10T13:17:33;8.70;;;7.90;;
3781;SDS011;6881;49.962;7.718;2023-06-10T13:19:59;8.93;;;8.03;;
3781;SDS011;6881;49.962;7.718;2023-06-10T13:22:24;9.00;;;8.30;;
3781;SDS011;6881;49.962;7.718;2023-06-10T13:24:51;9.40;;;8.70;;
3781;SDS011;6881;49.962;7.718;2023-06-10T13:27:17;9.03;;;8.33;;
3781;SDS011;6881;49.962;7.718;2023-06-10T13:29:42;8.20;;;7.60;;
3781;SDS011;6881;49.962;7.718;2023-06-10T13:32:07;8.50;;;7.80;;
3781;SDS011;6881;49.962;7.718;2023-06-10T13:34:33;8.60;;;8.00;;
3781;SDS011;6881;49.962;7.718;2023-06-10T13:36:58;8.53;;;7.73;;
3781;SDS011;6881;49.962;7.718;2023-06-10T13:39:24;8.20;;;7.60;;
3781;SDS011;6881;49.962;7.718;2023-06-10T13:41:49;8.47;;;7.83;;
3781;SDS011;6881;49.962;7.718;2023-06-10T13:44:14;8.83;;;8.13;;
3781;SDS011;6881;49.962;7.718;2023-06-10T13:46:40;8.53;;;7.77;;
3781;SDS011;6881;49.962;7.718;2023-06-10T13:49:05;8.70;;;7.50;;
3781;SDS011;6881;49.962;7.718;2023-06-10T13:51:30;8.63;;;7.93;;
3781;SDS011;6881;49.962;7.718;2023-06-10T13:53:56;8.13;;;7.43;;
3781;SDS011;6881;49.962;7.718;2023-06-10T13:56:21;8.27;;;7.57;;
3781;SDS011;6881;49.962;7.718;2023-06-10T13:58:46;8.10;;;7.40;;
3781;SDS011;6881;49.962;7.718;2023-06-10T14:01:12;8.70;;;7.90;;
3781;SDS011;6881;49.962;7.718;2023-06-10T14:03:37;7.83;;;7.30;;
3781;SDS011;6881;49.962;7.718;2023-06-10T14:06:02;8.83;;;8.13;;
3781;SDS011;6881;49.962;7.718;2023-06-10T14:08:28;8.67;;;7.97;;
3781;SDS011;6881;49.962;7.718;2023-06-10T14:10:53;8.27;;;7.67;;
3781;SDS011;6881;49.962;7.718;2023-06-10T14:13:18;7.10;;;6.63;;
3781;SDS011;6881;49.962;7.718;2023-06-10T14:15:44;8.23;;;7.57;;
3781;SDS011;6881;49.962;7.718;2023-06-10T14:18:10;8.00;;;7.20;;
3781;SDS011;6881;49.962;7.718;2023-06-10T14:20:35;9.43;;;8.63;;
3781;SDS011;6881;49.962;7.718;2023-06-10T14:23:01;9.23;;;8.50;;
3781;SDS011;6881;49.962;7.718;2023-06-10T14:25:26;8.20;;;7.70;;
3781;SDS011;6881;49.962;7.718;2023-06-10T14:27:52;8.43;;;7.53;;
3781;SDS011;6881;49.962;7.718;2023-06-10T14:30:17;8.40;;;7.80;;
3781;SDS011;6881;49.962;7.718;2023-06-10T14:32:42;8.07;;;7.57;;
3781;SDS011;6881;49.962;7.718;2023-06-10T14:35:08;8.87;;;8.10;;
3781;SDS011;6881;49.962;7.718;2023-06-10T14:37:33;8.23;;;7.57;;
3781;SDS011;6881;49.962;7.718;2023-06-10T14:39:58;8.50;;;7.80;;
3781;SDS011;6881;49.962;7.718;2023-06-10T14:42:24;7.83;;;7.23;;
3781;SDS011;6881;49.962;7.718;2023-06-10T14:44:49;7.40;;;6.80;;
3781;SDS011;6881;49.962;7.718;2023-06-10T14:47:15;7.67;;;7.10;;
3781;SDS011;6881;49.962;7.718;2023-06-10T14:49:40;7.27;;;6.67;;
3781;SDS011;6881;49.962;7.718;2023-06-10T14:52:07;8.73;;;8.03;;
3781;SDS011;6881;49.962;7.718;2023-06-10T14:54:33;8.77;;;7.97;;
3781;SDS011;6881;49.962;7.718;2023-06-10T14:56:58;7.70;;;7.10;;
3781;SDS011;6881;49.962;7.718;2023-06-10T14:59:23;8.13;;;7.53;;
3781;SDS011;6881;49.962;7.718;2023-06-10T15:01:49;8.43;;;7.73;;
3781;SDS011;6881;49.962;7.718;2023-06-10T15:04:14;7.93;;;7.40;;
3781;SDS011;6881;49.962;7.718;2023-06-10T15:06:39;8.87;;;8.17;;
3781;SDS011;6881;49.962;7.718;2023-06-10T15:09:05;8.27;;;7.67;;
3781;SDS011;6881;49.962;7.718;2023-06-10T15:11:30;7.97;;;7.27;;
3781;SDS011;6881;49.962;7.718;2023-06-10T15:13:55;8.00;;;7.50;;
3781;SDS011;6881;49.962;7.718;2023-06-10T15:16:21;8.13;;;7.47;;
3781;SDS011;6881;49.962;7.718;2023-06-10T15:18:46;10.57;;;7.37;;
3781;SDS011;6881;49.962;7.718;2023-06-10T15:21:11;7.37;;;6.80;;
3781;SDS011;6881;49.962;7.718;2023-06-10T15:23:36;8.33;;;7.53;;
3781;SDS011;6881;49.962;7.718;2023-06-10T15:26:02;7.90;;;7.00;;
3781;SDS011;6881;49.962;7.718;2023-06-10T15:28:27;8.47;;;7.63;;
3781;SDS011;6881;49.962;7.718;2023-06-10T15:30:52;8.67;;;8.00;;
3781;SDS011;6881;49.962;7.718;2023-06-10T15:33:18;8.63;;;7.90;;
3781;SDS011;6881;49.962;7.718;2023-06-10T15:35:43;8.80;;;7.43;;
3781;SDS011;6881;49.962;7.718;2023-06-10T15:38:08;9.07;;;8.40;;